createdAt,value
2018-09-17T00:01:33.654Z,85.20
2018-09-17T00:22:16.918Z,85.36
2018-09-17T00:42:55.257Z,85.73
2018-09-17T01:03:32.371Z,86.40
2018-09-17T01:24:11.635Z,86.50
2018-09-17T01:44:53.206Z,87.73
2018-09-17T02:05:30.169Z,88.19
2018-09-17T02:26:09.434Z,88.58
2018-09-17T02:46:52.027Z,88.68
2018-09-17T03:07:31.041Z,88.55
2018-09-17T03:28:10.303Z,88.67
2018-09-17T03:48:52.644Z,88.49
2018-09-17T04:09:33.754Z,88.47
2018-09-17T04:30:14.247Z,87.96
2018-09-17T04:50:54.434Z,88.59
2018-09-17T05:11:36.772Z,88.44
2018-09-17T05:32:17.293Z,89.07
2018-09-17T05:52:58.379Z,89.20
2018-09-17T06:13:38.883Z,89.72
2018-09-17T06:34:19.981Z,90.78
2018-09-17T06:55:00.172Z,90.95
2018-09-17T07:15:42.509Z,91.05
2018-09-17T07:36:21.166Z,91.99
2018-09-17T07:56:57.969Z,91.43
2018-09-17T08:17:43.377Z,91.41
2018-09-17T08:38:21.825Z,91.37
2018-09-17T08:59:11.135Z,89.82
2018-09-17T09:19:48.247Z,88.93
2018-09-17T09:40:24.439Z,87.30
2018-09-17T10:01:08.928Z,81.20
2018-09-17T10:21:46.043Z,77.17
2018-09-17T10:42:26.560Z,65.76
2018-09-17T11:03:03.933Z,60.07
2018-09-17T11:23:45.989Z,51.56
2018-09-17T11:44:26.176Z,47.52
2018-09-17T12:05:10.668Z,43.85
2018-09-17T12:25:49.630Z,42.75
2018-09-17T12:46:27.968Z,43.32
2018-09-17T13:07:07.236Z,46.33
2018-09-17T13:27:42.505Z,43.86
2018-09-17T13:48:18.700Z,42.85
2018-09-17T14:08:58.595Z,36.84
2018-09-17T14:29:39.408Z,37.52
2018-09-17T14:50:16.520Z,37.50
2018-09-17T15:10:57.922Z,37.29
2018-09-17T15:31:38.130Z,35.81
2018-09-17T15:52:13.405Z,40.23
2018-09-17T16:12:50.855Z,40.55
2018-09-17T16:33:31.966Z,43.59
2018-09-17T16:54:13.346Z,45.25
2018-09-17T17:14:51.706Z,48.52
2018-09-17T17:29:24.193Z,50.08
2018-09-17T17:31:53.730Z,51.09
2018-09-17T17:34:23.298Z,51.57
2018-09-17T17:36:52.700Z,50.70
2018-09-17T17:39:22.202Z,50.84
2018-09-17T17:41:52.909Z,51.77
2018-09-17T17:44:22.395Z,51.86
2018-09-17T17:46:52.335Z,52.45
2018-09-17T17:49:22.462Z,52.30
2018-09-17T17:51:52.270Z,52.69
2018-09-17T17:54:21.796Z,53.81
2018-09-17T17:56:51.273Z,53.68
2018-09-17T17:59:21.320Z,54.10
2018-09-17T18:01:50.852Z,54.12
2018-09-17T18:04:20.532Z,54.00
2018-09-17T18:06:49.895Z,54.33
2018-09-17T18:09:20.160Z,54.94
2018-09-17T18:11:49.531Z,54.93
2018-09-17T18:14:18.964Z,54.84
2018-09-17T18:16:48.388Z,55.69
2018-09-17T18:19:17.838Z,55.85
2018-09-17T18:21:47.310Z,56.25
2018-09-17T18:24:16.690Z,56.29
2018-09-17T18:26:46.249Z,57.12
2018-09-17T18:29:15.666Z,57.41
2018-09-17T18:31:45.075Z,57.23
2018-09-17T18:34:14.500Z,57.03
2018-09-17T18:36:44.474Z,57.53
2018-09-17T18:39:13.871Z,57.92
2018-09-17T18:41:43.277Z,58.28
2018-09-17T18:44:12.742Z,59.15
2018-09-17T18:46:42.135Z,58.66
2018-09-17T18:49:11.567Z,60.12
2018-09-17T18:51:41.024Z,59.84
2018-09-17T18:54:10.602Z,60.16
2018-09-17T18:56:40.063Z,60.48
2018-09-17T18:59:09.991Z,60.84
2018-09-17T19:01:39.384Z,61.44
2018-09-17T19:04:08.782Z,61.67
2018-09-17T19:06:38.403Z,61.68
2018-09-17T19:09:08.819Z,61.41
2018-09-17T19:11:41.172Z,62.00
2018-09-17T19:14:16.526Z,62.75
2018-09-17T19:16:51.778Z,62.83
2018-09-17T19:19:21.198Z,62.85
2018-09-17T19:21:55.928Z,63.40
2018-09-17T19:24:25.218Z,64.32
2018-09-17T19:26:54.653Z,64.54
2018-09-17T19:29:24.200Z,64.74
2018-09-17T19:31:53.677Z,64.95
2018-09-17T19:34:23.105Z,64.66
2018-09-17T19:36:52.570Z,65.03
2018-09-17T19:39:27.100Z,65.46
2018-09-17T19:41:56.664Z,65.29
2018-09-17T19:44:26.111Z,66.07
2018-09-17T19:46:55.489Z,66.53
2018-09-17T19:49:25.616Z,66.15
2018-09-17T19:52:00.244Z,66.59
2018-09-17T19:54:29.895Z,66.75
2018-09-17T19:57:00.001Z,66.91
2018-09-17T19:59:35.501Z,67.67
2018-09-17T20:02:05.015Z,67.66
2018-09-17T20:04:39.613Z,67.71
2018-09-17T20:07:09.138Z,67.69
2018-09-17T20:09:39.222Z,67.76
2018-09-17T20:12:08.713Z,67.91
2018-09-17T20:14:38.161Z,68.66
2018-09-17T20:17:07.545Z,68.33
2018-09-17T20:19:37.084Z,68.45
2018-09-17T20:22:08.160Z,69.04
2018-09-17T20:24:37.641Z,69.48
2018-09-17T20:27:07.405Z,69.03
2018-09-17T20:29:36.955Z,69.89
2018-09-17T20:32:06.414Z,69.34
2018-09-17T20:34:35.842Z,69.72
2018-09-17T20:37:05.593Z,69.68
2018-09-17T20:39:36.013Z,69.91
2018-09-17T20:42:05.432Z,69.86
2018-09-17T20:44:34.828Z,70.26
2018-09-17T20:47:04.290Z,70.25
2018-09-17T20:49:33.907Z,70.35
2018-09-17T20:52:03.259Z,71.29
2018-09-17T20:54:33.429Z,70.91
2018-09-17T20:57:02.867Z,71.18
2018-09-17T20:59:32.425Z,71.91
2018-09-17T21:02:01.834Z,71.74
2018-09-17T21:04:31.326Z,71.48
2018-09-17T21:07:00.865Z,71.65
2018-09-17T21:09:30.463Z,72.42
2018-09-17T21:12:00.544Z,71.86
2018-09-17T21:14:29.997Z,72.52
2018-09-17T21:16:59.477Z,72.16
2018-09-17T21:19:29.304Z,72.77
2018-09-17T21:22:00.371Z,72.96
2018-09-17T21:24:29.902Z,72.37
2018-09-17T21:26:59.351Z,73.20
2018-09-17T21:29:28.737Z,73.52
2018-09-17T21:31:58.245Z,73.24
2018-09-17T21:34:27.638Z,72.95
2018-09-17T21:36:57.173Z,73.46
2018-09-17T21:39:26.572Z,73.22
2018-09-17T21:41:55.955Z,74.16
2018-09-17T21:44:26.863Z,73.95
2018-09-17T21:46:56.279Z,74.04
2018-09-17T21:49:25.742Z,74.28
2018-09-17T21:51:55.748Z,74.22
2018-09-17T21:54:25.170Z,74.42
2018-09-17T21:56:54.699Z,74.84
2018-09-17T21:59:24.287Z,74.87
2018-09-17T22:01:54.235Z,74.88
2018-09-17T22:04:23.748Z,74.77
2018-09-17T22:06:53.236Z,74.56
2018-09-17T22:09:22.639Z,75.20
2018-09-17T22:11:52.662Z,74.80
2018-09-17T22:14:22.201Z,75.53
2018-09-17T22:16:52.205Z,75.74
2018-09-17T22:19:21.635Z,75.45
2018-09-17T22:21:51.107Z,75.59
2018-09-17T22:24:20.520Z,75.71
2018-09-17T22:26:49.952Z,75.95
2018-09-17T22:29:19.369Z,75.80
2018-09-17T22:31:49.458Z,75.95
2018-09-17T22:34:18.857Z,76.33
2018-09-17T22:36:48.264Z,76.47
2018-09-17T22:39:17.737Z,75.68
2018-09-17T22:41:48.537Z,75.96
2018-09-17T22:44:17.896Z,76.37
2018-09-17T22:46:47.317Z,76.11
2018-09-17T22:49:16.747Z,76.69
2018-09-17T22:51:46.952Z,75.96
2018-09-17T22:54:16.348Z,76.58
2018-09-17T22:56:45.740Z,76.68
2018-09-17T22:59:15.196Z,76.73
2018-09-17T23:01:44.551Z,76.27
2018-09-17T23:04:14.064Z,76.95
2018-09-17T23:06:44.095Z,76.65
2018-09-17T23:09:13.471Z,76.79
2018-09-17T23:11:43.585Z,77.02
2018-09-17T23:14:13.173Z,77.43
2018-09-17T23:16:42.602Z,77.97
2018-09-17T23:19:12.127Z,77.47
2018-09-17T23:21:41.751Z,77.88
2018-09-17T23:24:11.179Z,77.71
2018-09-17T23:26:41.167Z,78.33
2018-09-17T23:29:10.536Z,78.03
2018-09-17T23:31:39.952Z,78.03
2018-09-17T23:34:09.374Z,78.07
2018-09-17T23:36:38.785Z,77.96
2018-09-17T23:39:11.466Z,78.16
2018-09-17T23:41:41.239Z,78.55
2018-09-17T23:44:10.654Z,78.82
2018-09-17T23:46:40.008Z,78.74
2018-09-17T23:49:09.402Z,78.77
2018-09-17T23:51:38.811Z,79.01
2018-09-17T23:54:08.291Z,78.64
2018-09-17T23:56:37.743Z,79.16
2018-09-17T23:59:07.241Z,79.46
